Sheppard Air Force Base-Wichita Falls Municipal Airport
KSPS : now visible

Airfield :











YOU CAN JOIN US ON...

 
LOGIN :

Register | Disclaimer

   EN    FR    IT 

 









Legend :    VFR   Marginal VFR   IFR   Intensive IFR   Very Intensive IFR
Visi :
Ceiling :
>= 8 km
>= 3000ft
5 to 8 km
1000 to 3000 ft
1500m to 5 km
500 to 1000 ft
800 to 1500m
200 to 500 ft
< 800m
< 200 ft
Symbols :   Thunderstorms  Fog  Heavy snow  Heavy precipitations  Wind > 20 kt






- Airport Elevation : 1019 ft
- IATA code : SPS


KSPS - Sheppard Air Force Base-Wichita Falls Municipal

CURRENT METAR :
  • 110352Z 13008KT 10SM CLR 28/18 A2989 RMK AO2 SLP105 T02830178

EXPIRED METARs :
  • 110252Z 13007KT 10SM CLR 29/18 A2987 RMK AO2 SLP098 T02940178 53009
  • 110152Z 14008KT 10SM CLR 31/18 A2984 RMK AO2 SLP088 T03060183

TAF KSPS
Valid from the 11 at 04:00 until the 12 at 00:00 UTC


110357Z 1104/1124 14008KT P6SM FEW250
TEMPO 1105/1108 35015G25KT P6SM BKN250
FM110800 18011KT P6SM BKN250
FM111800 20010G15KT P6SM FEW250
FM112300 16012G17KT P6SM FEW200
KZFW FIR / North America



MET'MAP, your aeronautical weather chart ! - Copyright ORBIFLY December 2007 - Disclaimer

ORBIFLY MET'MAP TEAM :

Programming & Development : Alexandra Zaïnal
Concept & original design : Baudouin d'Aumeries
Assistance for programming : Marc-Olivier Méhu
Technical & hardware support : Manuel Goepfert

Contact : metmap@orbifly.com




SOURCES & CREDITS :

   NOAA       Earth
Advisory